Time;durP1;ratioP1;P1;durP2;ratioP2;P2;SDS_P1;SDS_P2;PMS_P1;PMS_P2;Temp;Humidity;BMP_temperature;BMP_pressure;BME280_temperature;BME280_humidity;BME280_pressure;Samples;Min_cycle;Max_cycle;Signal;HPM_P1;HPM_P2
2024/03/29 00:00:39;;;;;;;0.45;0.20;;;;;;;17.19;35.72;98938.25;5001240;28;20405;-68
2024/03/29 00:03:05;;;;;;;1.42;0.30;;;;;;;17.17;36.11;98940.38;4999859;28;20041;-68
2024/03/29 00:05:30;;;;;;;1.48;0.40;;;;;;;17.16;37.00;98954.94;5004445;28;20029;-68
2024/03/29 00:07:56;;;;;;;1.23;0.30;;;;;;;17.11;35.98;98938.53;4992497;28;20034;-68
2024/03/29 00:10:21;;;;;;;3.20;0.50;;;;;;;17.12;37.14;98942.88;5006358;28;20029;-68
2024/03/29 00:12:47;;;;;;;2.30;0.63;;;;;;;17.14;36.42;98951.63;5007945;28;20036;-68
2024/03/29 00:15:12;;;;;;;1.52;0.73;;;;;;;17.14;37.01;98946.22;4989964;28;20501;-68
2024/03/29 00:17:38;;;;;;;4.70;1.20;;;;;;;17.14;37.01;98948.91;4992255;28;20042;-67
2024/03/29 00:20:05;;;;;;;0.50;0.40;;;;;;;17.18;36.19;98947.41;5005996;28;20033;-68
2024/03/29 00:22:31;;;;;;;1.50;0.57;;;;;;;17.17;36.67;98934.97;5004981;28;20489;-68
2024/03/29 00:24:57;;;;;;;1.60;0.45;;;;;;;17.17;37.08;98940.38;4997340;28;20069;-68
2024/03/29 00:27:25;;;;;;;2.17;0.30;;;;;;;17.13;36.22;98939.13;5005859;28;20033;-68
2024/03/29 00:29:53;;;;;;;1.20;0.60;;;;;;;17.12;37.24;98948.28;5022717;28;20058;-68
2024/03/29 00:32:24;;;;;;;2.78;0.85;;;;;;;17.15;36.69;98953.25;4990298;28;20048;-68
2024/03/29 00:34:50;;;;;;;2.20;0.50;;;;;;;17.14;37.43;98959.75;4989906;28;20026;-68
2024/03/29 00:37:16;;;;;;;2.65;0.60;;;;;;;17.13;36.99;98958.91;4998302;28;20079;-68
2024/03/29 00:39:42;;;;;;;4.03;0.68;;;;;;;17.16;37.12;98965.75;5007116;28;20064;-68
2024/03/29 00:42:12;;;;;;;1.35;0.38;;;;;;;17.15;36.88;98969.50;5005227;28;20058;-68
2024/03/29 00:44:38;;;;;;;2.17;0.50;;;;;;;17.13;36.83;98961.63;4974525;28;20034;-68
2024/03/29 00:47:04;;;;;;;1.30;0.30;;;;;;;17.15;36.53;98964.91;4990892;28;20018;-68
2024/03/29 00:49:30;;;;;;;3.55;0.52;;;;;;;17.16;36.82;98944.09;4991631;28;20026;-68
2024/03/29 00:51:56;;;;;;;1.55;0.32;;;;;;;17.18;36.66;98936.59;4990229;28;20041;-68
2024/03/29 00:54:23;;;;;;;2.10;0.40;;;;;;;17.16;36.41;98936.81;4990537;28;20054;-68
2024/03/29 00:56:48;;;;;;;6.00;0.47;;;;;;;17.19;36.85;98959.91;4988536;28;20042;-68
2024/03/29 00:59:14;;;;;;;2.75;0.50;;;;;;;17.21;37.12;98958.66;4964361;28;20038;-67
2024/03/29 01:01:39;;;;;;;0.57;0.38;;;;;;;17.20;36.44;98951.56;4996910;28;20443;-68
2024/03/29 01:04:05;;;;;;;1.58;0.30;;;;;;;17.22;35.95;98965.72;4996942;28;20041;-68
2024/03/29 01:06:30;;;;;;;5.10;1.00;;;;;;;17.21;37.02;98957.81;4980313;28;20072;-68
2024/03/29 01:08:56;;;;;;;1.00;0.30;;;;;;;17.19;36.97;98966.16;4980634;28;20489;-68
2024/03/29 01:11:22;;;;;;;0.95;0.20;;;;;;;17.25;36.47;98981.50;4980547;28;20034;-68
2024/03/29 01:13:47;;;;;;;2.88;0.30;;;;;;;17.27;36.38;98973.19;4980129;28;20129;-68
2024/03/29 01:16:13;;;;;;;1.10;0.20;;;;;;;17.27;36.70;98975.88;4980802;28;20076;-68
2024/03/29 01:18:38;;;;;;;0.50;0.20;;;;;;;17.28;36.26;98975.66;4981753;28;20510;-68
2024/03/29 01:21:04;;;;;;;1.48;0.20;;;;;;;17.29;36.37;98960.25;4998537;28;20042;-68
2024/03/29 01:23:29;;;;;;;3.65;0.30;;;;;;;17.29;36.67;98980.03;4983371;28;20038;-68
2024/03/29 01:25:55;;;;;;;4.95;0.57;;;;;;;17.27;37.02;98956.94;4983559;28;20036;-68
2024/03/29 01:28:20;;;;;;;1.60;0.50;;;;;;;17.26;37.06;98966.94;4978856;28;20042;-68
2024/03/29 01:30:55;;;;;;;2.42;0.28;;;;;;;17.28;36.93;98969.44;4996349;28;20414;-68
2024/03/29 01:33:21;;;;;;;0.85;0.10;;;;;;;17.26;36.50;98950.69;4996162;28;20045;-67
2024/03/29 01:35:47;;;;;;;1.17;0.30;;;;;;;17.28;36.43;98953.19;4979852;28;20042;-67
2024/03/29 01:38:12;;;;;;;1.15;0.25;;;;;;;17.31;36.70;98947.31;4995934;28;20034;-67
2024/03/29 01:40:38;;;;;;;1.08;0.68;;;;;;;17.31;36.42;98936.50;4996039;28;20042;-68
2024/03/29 01:43:03;;;;;;;2.28;0.40;;;;;;;17.32;36.83;98927.34;4995915;28;20041;-67
2024/03/29 01:45:29;;;;;;;0.90;0.20;;;;;;;17.33;37.03;98929.00;4979572;28;20080;-67
2024/03/29 01:47:55;;;;;;;1.27;0.20;;;;;;;17.34;37.42;98930.66;4995912;28;20034;-68
2024/03/29 01:50:21;;;;;;;2.45;0.40;;;;;;;17.34;36.29;98917.13;4979766;28;20397;-65
2024/03/29 01:52:47;;;;;;;3.83;0.30;;;;;;;17.32;36.26;98916.50;4979601;28;20034;-65
2024/03/29 01:55:12;;;;;;;4.28;0.47;;;;;;;17.30;37.04;98924.03;4979483;28;20034;-65
2024/03/29 01:57:38;;;;;;;2.15;0.25;;;;;;;17.32;37.38;98911.09;4979460;28;20052;-65
2024/03/29 02:00:06;;;;;;;1.00;0.20;;;;;;;17.31;37.01;98909.44;4979804;28;20030;-65
2024/03/29 02:02:33;;;;;;;0.35;0.32;;;;;;;17.30;37.09;98916.75;4995584;28;20034;-65
2024/03/29 02:04:59;;;;;;;0.75;0.30;;;;;;;17.35;36.47;98926.91;4979450;28;20053;-65
2024/03/29 02:07:25;;;;;;;2.08;0.32;;;;;;;17.36;37.45;98917.75;4979402;28;20041;-65
2024/03/29 02:09:50;;;;;;;1.52;0.93;;;;;;;17.36;37.31;98923.97;4979312;28;20417;-65
2024/03/29 02:12:16;;;;;;;0.95;0.40;;;;;;;17.42;36.36;98916.84;4979553;28;20048;-65
2024/03/29 02:14:45;;;;;;;1.45;0.20;;;;;;;17.47;36.84;98936.00;4956477;28;20038;-66
2024/03/29 02:17:10;;;;;;;3.53;0.80;;;;;;;17.49;36.31;98928.47;4979471;28;20034;-65
2024/03/29 02:19:36;;;;;;;0.47;0.22;;;;;;;17.50;36.82;98922.03;4995501;28;20042;-66
2024/03/29 02:22:05;;;;;;;0.68;0.25;;;;;;;17.55;36.90;98929.50;4995442;28;20034;-65
2024/03/29 02:24:31;;;;;;;4.70;0.20;;;;;;;17.56;36.90;98934.69;4995855;28;20034;-66
2024/03/29 02:26:56;;;;;;;4.30;0.55;;;;;;;17.56;36.25;98940.09;4965898;28;20563;-65
2024/03/29 02:29:23;;;;;;;0.70;0.28;;;;;;;17.57;36.82;98957.16;4999302;28;20049;-65
2024/03/29 02:31:49;;;;;;;3.20;0.40;;;;;;;17.56;37.06;98945.50;4999383;28;20530;-66
2024/03/29 02:34:15;;;;;;;0.40;0.40;;;;;;;17.57;36.89;98947.19;4999476;28;20113;-65
2024/03/29 02:36:42;;;;;;;1.00;0.30;;;;;;;17.56;36.66;98956.34;4967074;28;20068;-66
2024/03/29 02:39:07;;;;;;;2.78;0.20;;;;;;;17.54;36.04;98985.53;5016845;28;20444;-66
2024/03/29 02:41:32;;;;;;;0.70;0.10;;;;;;;17.51;36.80;98975.09;4982864;28;20557;-66
2024/03/29 02:43:58;;;;;;;2.13;0.60;;;;;;;17.48;37.93;98980.94;4999222;28;20045;-66
2024/03/29 02:46:24;;;;;;;1.77;0.30;;;;;;;17.45;36.87;98970.53;5016658;28;20034;-66
2024/03/29 02:48:49;;;;;;;0.22;0.03;;;;;;;17.36;37.66;98978.09;4983114;28;20397;-67
2024/03/29 02:51:15;;;;;;;0.57;0.10;;;;;;;17.32;37.68;98981.47;4983061;28;20379;-66
2024/03/29 02:53:40;;;;;;;2.92;0.28;;;;;;;17.27;36.96;98984.00;5016507;28;20038;-66
2024/03/29 02:56:08;;;;;;;1.33;0.35;;;;;;;17.19;37.80;98992.38;4998994;28;20061;-66
2024/03/29 02:58:35;;;;;;;0.40;0.15;;;;;;;17.11;38.05;98995.34;4997689;28;20037;-66
2024/03/29 03:01:07;;;;;;;0.65;0.08;;;;;;;17.06;38.59;98981.59;5015397;28;20037;-66
2024/03/29 03:03:33;;;;;;;4.20;0.45;;;;;;;17.00;38.96;98987.91;5015175;28;20069;-66
2024/03/29 03:05:58;;;;;;;0.17;0.00;;;;;;;16.91;39.07;98989.19;4998954;28;20116;-66
2024/03/29 03:11:07;;;;;;;2.83;0.30;;;;;;;16.78;38.70;98969.25;5016431;28;20050;-66
2024/03/29 03:13:33;;;;;;;1.45;0.30;;;;;;;16.73;38.47;98977.19;4998769;28;20117;-66
2024/03/29 03:15:58;;;;;;;0.43;0.20;;;;;;;16.73;38.97;98993.41;5015003;28;20103;-67
2024/03/29 03:18:24;;;;;;;2.53;0.30;;;;;;;16.70;39.08;98983.03;5015041;28;20038;-66
2024/03/29 03:20:52;;;;;;;0.20;0.20;;;;;;;16.70;38.70;98988.44;5014890;28;20034;-65
2024/03/29 03:23:18;;;;;;;0.50;0.28;;;;;;;16.68;39.10;98974.31;5016127;28;20042;-66
2024/03/29 03:25:43;;;;;;;2.63;0.65;;;;;;;16.69;38.93;98975.97;5014698;28;20117;-66
2024/03/29 03:28:09;;;;;;;3.30;0.50;;;;;;;16.67;40.34;98972.63;5011533;28;20078;-66
2024/03/29 03:30:39;;;;;;;1.63;0.60;;;;;;;16.62;39.95;98980.56;5013966;28;20045;-66
2024/03/29 03:33:04;;;;;;;0.45;0.28;;;;;;;16.59;40.39;98964.75;5014471;28;20095;-66
2024/03/29 03:35:30;;;;;;;4.82;0.57;;;;;;;16.59;39.85;98975.56;5014549;28;20072;-67
2024/03/29 03:37:56;;;;;;;1.00;0.40;;;;;;;16.57;40.18;98972.28;4981037;28;20034;-66
2024/03/29 03:40:21;;;;;;;1.13;0.20;;;;;;;16.53;40.13;98953.94;5014551;28;20041;-66
2024/03/29 03:42:47;;;;;;;0.98;0.30;;;;;;;16.52;40.28;98960.41;5015706;28;20041;-66
2024/03/29 03:45:13;;;;;;;0.32;0.17;;;;;;;16.51;41.62;98956.88;4982019;28;20048;-66
2024/03/29 03:47:40;;;;;;;0.63;0.20;;;;;;;16.54;40.78;98953.78;4998135;28;20036;-66
2024/03/29 03:50:06;;;;;;;0.45;0.20;;;;;;;16.55;40.73;98951.91;4998100;28;20109;-66
2024/03/29 03:52:31;;;;;;;3.15;0.20;;;;;;;16.53;41.00;98949.41;4998256;28;20038;-66
2024/03/29 03:54:56;;;;;;;1.75;0.20;;;;;;;16.55;41.44;98958.16;4998061;28;20041;-65
2024/03/29 03:57:22;;;;;;;1.95;0.30;;;;;;;16.57;41.54;98950.63;5014348;28;20049;-65
2024/03/29 03:59:51;;;;;;;1.83;0.50;;;;;;;16.57;40.98;98958.75;4997829;28;20133;-66
2024/03/29 04:02:16;;;;;;;1.05;0.65;;;;;;;16.57;41.58;98950.63;4997880;28;20563;-66
2024/03/29 04:04:42;;;;;;;1.45;0.40;;;;;;;16.53;40.94;98946.69;5013962;28;20038;-66
2024/03/29 04:07:07;;;;;;;1.27;0.25;;;;;;;16.53;41.50;98951.22;5014080;28;20034;-65
2024/03/29 04:09:33;;;;;;;0.52;0.20;;;;;;;16.55;42.03;98962.72;4998356;28;20038;-65
2024/03/29 04:11:58;;;;;;;2.17;0.45;;;;;;;16.54;41.08;98953.78;4998901;28;20113;-68
2024/03/29 04:14:24;;;;;;;1.27;0.10;;;;;;;16.52;41.27;98942.31;5016716;28;20106;-68
2024/03/29 04:16:49;;;;;;;1.83;0.70;;;;;;;16.55;42.06;98951.91;5014487;28;20498;-68
2024/03/29 04:19:14;;;;;;;0.50;0.30;;;;;;;16.51;42.33;98956.88;5013742;28;20128;-68
2024/03/29 04:21:40;;;;;;;2.05;0.30;;;;;;;16.50;41.46;98947.09;5014066;28;20084;-68
2024/03/29 04:24:09;;;;;;;3.22;0.40;;;;;;;16.51;42.21;98954.16;5013620;28;20121;-68
2024/03/29 04:26:35;;;;;;;1.58;0.35;;;;;;;16.49;41.83;98950.84;5013886;28;20076;-68
2024/03/29 04:29:00;;;;;;;0.65;0.30;;;;;;;16.47;41.56;98947.50;4974380;28;20070;-68
2024/03/29 04:31:26;;;;;;;1.65;0.30;;;;;;;16.47;42.69;98944.81;4991867;28;20503;-68
2024/03/29 04:33:51;;;;;;;2.38;0.40;;;;;;;16.45;41.91;98935.25;4977632;28;20042;-68
2024/03/29 04:36:17;;;;;;;0.45;0.10;;;;;;;16.46;42.03;98945.88;4994012;28;20037;-68
2024/03/29 04:38:44;;;;;;;0.40;0.40;;;;;;;16.45;42.06;98937.94;4977471;28;20043;-68
2024/03/29 04:41:09;;;;;;;0.75;0.30;;;;;;;16.43;43.25;98943.59;4994081;28;20101;-68
2024/03/29 04:43:35;;;;;;;0.20;0.20;;;;;;;16.42;42.75;98954.59;4978023;28;20121;-68
2024/03/29 04:46:08;;;;;;;0.47;0.32;;;;;;;16.39;42.02;98955.84;4977541;28;20473;-68
2024/03/29 04:48:34;;;;;;;0.45;0.22;;;;;;;16.36;41.84;98953.56;4993225;28;20050;-68
2024/03/29 04:50:59;;;;;;;1.10;0.50;;;;;;;16.33;43.18;98943.22;4977415;28;20037;-68
2024/03/29 04:53:25;;;;;;;0.50;0.30;;;;;;;16.25;42.28;98935.31;4977831;28;20034;-68
2024/03/29 04:55:55;;;;;;;3.15;0.30;;;;;;;16.30;42.57;98943.63;4977574;28;20026;-69
2024/03/29 04:58:29;;;;;;;0.63;0.20;;;;;;;16.27;43.01;98939.47;4993279;28;20483;-68
2024/03/29 05:00:55;;;;;;;0.50;0.20;;;;;;;16.25;42.99;98940.72;4977316;28;20509;-69
2024/03/29 05:03:21;;;;;;;2.53;0.35;;;;;;;16.23;44.05;98932.00;4977127;28;20066;-68
2024/03/29 05:05:49;;;;;;;0.20;0.20;;;;;;;16.20;42.71;98937.81;4993472;28;20034;-68
2024/03/29 05:08:15;;;;;;;1.13;0.22;;;;;;;16.18;43.78;98950.72;4977181;28;20033;-68
2024/03/29 05:10:40;;;;;;;0.70;0.47;;;;;;;16.18;43.51;98945.31;4977180;28;20042;-69
2024/03/29 05:13:06;;;;;;;0.28;0.25;;;;;;;16.13;43.70;98948.66;4993641;28;20030;-68
2024/03/29 05:15:32;;;;;;;0.35;0.20;;;;;;;16.16;43.24;98960.91;4993328;28;20200;-68
2024/03/29 05:17:58;;;;;;;0.80;0.30;;;;;;;16.15;43.14;98943.03;4993097;28;20042;-68
2024/03/29 05:20:23;;;;;;;1.50;0.50;;;;;;;16.15;43.83;98908.75;4993300;28;20109;-66
2024/03/29 05:22:49;;;;;;;3.30;0.30;;;;;;;16.14;43.24;98917.06;4993379;28;20027;-65
2024/03/29 05:25:14;;;;;;;2.70;0.30;;;;;;;16.13;43.43;98920.81;4977073;28;20066;-66
2024/03/29 05:27:40;;;;;;;0.90;0.50;;;;;;;16.14;43.24;98917.06;4976463;28;20062;-66
2024/03/29 05:30:06;;;;;;;1.08;0.35;;;;;;;16.15;43.81;98918.72;4996455;28;20030;-65
2024/03/29 05:32:31;;;;;;;0.28;0.28;;;;;;;16.12;43.89;98919.16;5012623;28;20389;-66
2024/03/29 05:34:57;;;;;;;1.23;0.47;;;;;;;16.14;43.55;98915.19;5012503;28;20122;-66
2024/03/29 05:37:25;;;;;;;0.45;0.40;;;;;;;16.15;44.45;98921.44;4996403;28;20117;-65
2024/03/29 05:39:58;;;;;;;0.60;0.40;;;;;;;16.18;43.90;98921.00;5012491;28;20049;-67
2024/03/29 05:42:27;;;;;;;1.73;0.50;;;;;;;16.18;43.48;98907.50;4997432;28;20080;-66
2024/03/29 05:44:53;;;;;;;3.70;0.63;;;;;;;16.17;44.31;98908.53;5013773;28;20054;-65
2024/03/29 05:47:19;;;;;;;1.27;0.50;;;;;;;16.18;44.74;98929.09;5012411;28;20463;-65
2024/03/29 05:49:45;;;;;;;2.35;0.43;;;;;;;16.18;44.84;98923.72;5012218;28;20383;-65
2024/03/29 05:52:13;;;;;;;2.15;0.60;;;;;;;16.17;44.31;98900.44;4995794;28;20497;-65
2024/03/29 05:54:40;;;;;;;3.22;0.52;;;;;;;16.16;44.39;98905.00;4996334;28;20104;-66
2024/03/29 05:57:06;;;;;;;1.25;0.35;;;;;;;16.13;44.75;98904.59;5012278;28;20041;-66
2024/03/29 05:59:32;;;;;;;3.35;0.77;;;;;;;16.09;43.92;98914.16;4979959;28;20042;-65
2024/03/29 06:01:58;;;;;;;2.38;0.45;;;;;;;16.11;43.87;98918.31;4995301;28;20088;-65
2024/03/29 06:04:30;;;;;;;1.73;0.25;;;;;;;16.12;44.04;98924.53;5013456;28;20030;-65
2024/03/29 06:06:57;;;;;;;2.45;0.57;;;;;;;16.15;44.04;98938.47;4996934;28;20410;-65
2024/03/29 06:09:23;;;;;;;1.33;0.40;;;;;;;16.15;44.50;98930.38;4995814;28;20172;-65
2024/03/29 06:11:49;;;;;;;2.83;1.00;;;;;;;16.21;44.14;98953.00;4995681;28;20038;-66
2024/03/29 06:19:42;;;;;;;2.30;0.88;;;;;;;16.31;44.42;98945.28;5012178;28;20041;-65
2024/03/29 06:22:09;;;;;;;4.47;0.60;;;;;;;16.37;43.66;98949.84;4995666;28;20456;-65
2024/03/29 06:24:34;;;;;;;1.63;0.70;;;;;;;16.42;43.91;98947.31;4979344;28;20041;-65
2024/03/29 06:27:00;;;;;;;3.08;0.82;;;;;;;16.44;43.84;98934.44;4995663;28;20045;-65
2024/03/29 06:29:26;;;;;;;3.95;0.70;;;;;;;16.50;44.61;98938.97;4995023;28;20422;-65
2024/03/29 06:31:51;;;;;;;2.08;0.82;;;;;;;16.49;44.56;98937.34;5013287;28;20045;-65
2024/03/29 06:34:17;;;;;;;1.77;0.55;;;;;;;16.57;44.10;98944.41;5011886;28;20042;-64
2024/03/29 06:36:42;;;;;;;1.75;0.70;;;;;;;16.60;44.48;98954.78;4995720;28;20179;-65
2024/03/29 06:39:08;;;;;;;1.42;0.85;;;;;;;16.62;44.36;98944.59;4995628;28;20451;-65
2024/03/29 06:41:34;;;;;;;5.30;0.88;;;;;;;16.64;44.68;98951.44;5011924;28;20041;-65
2024/03/29 06:43:59;;;;;;;1.95;0.90;;;;;;;16.65;43.67;98942.28;5013231;28;20042;-66
2024/03/29 06:46:25;;;;;;;1.63;0.93;;;;;;;16.68;44.29;98941.88;4995412;28;20033;-65
2024/03/29 06:48:51;;;;;;;1.35;0.57;;;;;;;16.68;44.23;98947.28;4995259;28;20044;-65
2024/03/29 06:51:16;;;;;;;2.83;0.65;;;;;;;16.73;43.81;98954.72;4979023;28;20049;-65
2024/03/29 06:53:42;;;;;;;3.20;0.90;;;;;;;16.72;44.28;98937.66;5011426;28;20121;-65
2024/03/29 06:56:07;;;;;;;3.55;0.85;;;;;;;16.77;43.33;98942.44;4978952;28;20462;-64
2024/03/29 06:58:33;;;;;;;3.20;0.73;;;;;;;16.79;43.27;98957.41;4994890;28;20037;-66
2024/03/29 07:00:58;;;;;;;1.90;0.80;;;;;;;16.82;44.30;98946.16;5011956;28;20121;-67
2024/03/29 07:03:24;;;;;;;1.30;0.60;;;;;;;16.84;43.87;98938.66;5012678;28;20456;-66
2024/03/29 07:05:50;;;;;;;1.45;0.47;;;;;;;16.85;43.90;98937.63;5011592;28;20041;-66
2024/03/29 07:08:16;;;;;;;0.93;0.40;;;;;;;16.83;43.99;98928.88;4978941;28;20109;-66
2024/03/29 07:10:41;;;;;;;0.35;0.35;;;;;;;16.85;44.03;98929.50;4995067;28;20038;-66
2024/03/29 07:13:08;;;;;;;1.92;0.30;;;;;;;16.87;44.67;98932.81;4997999;28;20045;-66
2024/03/29 07:15:33;;;;;;;4.63;0.80;;;;;;;16.86;43.67;98944.69;4982561;28;20520;-66
2024/03/29 07:18:00;;;;;;;0.40;0.28;;;;;;;16.88;44.29;98953.44;4998676;28;20034;-66
2024/03/29 07:20:26;;;;;;;2.72;1.40;;;;;;;16.94;44.58;98959.00;4998643;28;20042;-66
2024/03/29 07:22:52;;;;;;;1.83;1.17;;;;;;;16.99;44.79;98972.72;5015115;28;20038;-66
2024/03/29 07:25:17;;;;;;;1.95;0.60;;;;;;;17.03;45.01;98974.75;5016086;28;20378;-66
2024/03/29 07:27:43;;;;;;;1.13;0.50;;;;;;;17.01;44.25;98973.31;4982055;28;20085;-66
2024/03/29 07:30:10;;;;;;;0.77;0.45;;;;;;;17.09;45.16;98989.28;5014926;28;20057;-66
2024/03/29 07:32:36;;;;;;;4.55;0.65;;;;;;;17.12;45.18;98992.41;5014736;28;20049;-66
2024/03/29 07:35:02;;;;;;;0.63;0.47;;;;;;;17.14;44.68;98989.50;5015841;28;20113;-66
2024/03/29 07:37:28;;;;;;;2.20;0.50;;;;;;;17.20;44.57;98994.03;4998600;28;20501;-66
2024/03/29 07:39:53;;;;;;;2.13;0.80;;;;;;;17.22;44.30;98986.53;4998086;28;20034;-67
2024/03/29 07:42:19;;;;;;;4.78;0.63;;;;;;;17.24;45.37;98989.84;4998210;28;20517;-67
2024/03/29 07:44:45;;;;;;;1.00;0.50;;;;;;;17.29;44.75;98976.50;4982228;28;20041;-67
2024/03/29 07:47:13;;;;;;;2.70;0.60;;;;;;;17.31;45.25;98974.38;4981909;28;20113;-67
2024/03/29 07:49:38;;;;;;;1.13;0.50;;;;;;;17.39;45.52;98982.28;4981743;28;20041;-67
2024/03/29 07:52:05;;;;;;;1.20;0.73;;;;;;;17.43;45.68;98984.31;4981763;28;20029;-67
2024/03/29 07:54:33;;;;;;;1.52;0.68;;;;;;;17.43;45.08;98983.47;4997784;28;20513;-67
2024/03/29 07:56:59;;;;;;;3.88;0.82;;;;;;;17.38;45.01;98981.44;4997939;28;20069;-67
2024/03/29 07:59:24;;;;;;;5.93;0.60;;;;;;;17.42;45.77;98987.22;4997719;28;20108;-67
2024/03/29 08:01:52;;;;;;;1.23;0.68;;;;;;;17.51;45.88;98990.50;5015297;28;20118;-66
2024/03/29 08:04:17;;;;;;;2.83;0.85;;;;;;;17.58;45.52;98975.94;4965534;28;20117;-67
2024/03/29 08:06:43;;;;;;;2.05;0.80;;;;;;;17.70;45.80;98982.25;4981508;28;20117;-67
2024/03/29 08:09:09;;;;;;;2.63;0.80;;;;;;;17.75;45.69;98963.50;4981651;28;20374;-67
2024/03/29 08:11:35;;;;;;;1.48;0.80;;;;;;;17.84;45.81;98973.00;4981676;28;20524;-67
2024/03/29 08:14:01;;;;;;;1.45;0.60;;;;;;;17.89;45.67;98975.88;5013858;28;20030;-67
2024/03/29 08:16:27;;;;;;;1.00;0.38;;;;;;;17.99;45.46;98970.78;5013873;28;20044;-67
2024/03/29 08:18:52;;;;;;;2.08;0.50;;;;;;;18.03;45.70;98969.28;5013827;28;20030;-66
2024/03/29 08:21:18;;;;;;;1.45;0.77;;;;;;;18.09;45.78;98966.75;4981386;28;20092;-66
2024/03/29 08:23:46;;;;;;;0.63;0.60;;;;;;;18.09;46.43;98974.88;4997010;28;20072;-66
2024/03/29 08:26:12;;;;;;;1.40;0.57;;;;;;;18.09;45.78;98980.28;5014062;28;20026;-67
2024/03/29 08:28:37;;;;;;;6.65;0.70;;;;;;;18.11;45.56;98989.84;5013497;28;20453;-66
2024/03/29 08:31:09;;;;;;;2.40;1.17;;;;;;;18.14;45.72;98985.88;4997272;28;20062;-65
2024/03/29 08:33:37;;;;;;;4.47;0.80;;;;;;;18.17;46.05;98993.56;5002205;28;20418;-67
2024/03/29 08:36:06;;;;;;;3.60;1.45;;;;;;;18.18;45.89;98993.31;5005650;28;20026;-67
2024/03/29 08:38:32;;;;;;;2.45;0.75;;;;;;;18.27;45.60;98993.88;4998637;28;20045;-66
2024/03/29 08:40:57;;;;;;;1.83;0.60;;;;;;;18.46;45.75;98982.81;4999018;28;20541;-66
2024/03/29 08:43:23;;;;;;;4.47;0.52;;;;;;;18.70;46.08;98981.13;4983091;28;20507;-66
2024/03/29 08:45:48;;;;;;;1.65;0.82;;;;;;;19.00;45.73;98979.28;4997389;28;20056;-67
2024/03/29 08:48:14;;;;;;;5.38;0.70;;;;;;;19.35;44.93;98989.44;4997185;28;20030;-67
2024/03/29 08:50:39;;;;;;;2.28;0.70;;;;;;;19.79;45.27;98991.75;5014638;28;20034;-67
2024/03/29 08:53:05;;;;;;;0.95;0.47;;;;;;;20.20;44.86;98991.69;4980780;28;20379;-67
2024/03/29 08:55:31;;;;;;;1.25;0.80;;;;;;;20.36;44.43;99003.75;4996966;28;20034;-66
2024/03/29 08:58:00;;;;;;;0.95;0.50;;;;;;;20.45;44.82;99001.50;4980762;28;20444;-67
2024/03/29 09:00:29;;;;;;;3.60;0.70;;;;;;;20.54;44.87;98995.47;4980581;28;20513;-66
2024/03/29 09:02:58;;;;;;;1.88;0.60;;;;;;;20.63;44.60;98993.22;4996745;28;20567;-66
2024/03/29 09:05:26;;;;;;;0.43;0.43;;;;;;;20.69;44.35;99003.13;5013035;28;20037;-67
2024/03/29 09:07:52;;;;;;;1.27;0.60;;;;;;;20.72;44.13;99003.47;5014421;28;20117;-66
2024/03/29 09:10:17;;;;;;;2.03;0.80;;;;;;;20.70;44.98;99000.19;4980403;28;20552;-67
2024/03/29 09:12:43;;;;;;;0.50;0.50;;;;;;;20.73;43.86;99009.75;5013026;28;20044;-66
2024/03/29 09:15:13;;;;;;;1.65;0.63;;;;;;;20.77;45.16;99016.41;4980527;28;20026;-66
2024/03/29 09:17:42;;;;;;;2.83;0.70;;;;;;;20.82;44.90;99011.06;4996410;28;20038;-67
2024/03/29 09:20:08;;;;;;;3.53;0.50;;;;;;;20.85;44.70;99007.84;5013866;28;20036;-67
2024/03/29 09:22:34;;;;;;;3.65;0.88;;;;;;;20.83;44.50;99015.41;4996267;28;20030;-67
2024/03/29 09:24:59;;;;;;;0.85;0.40;;;;;;;20.78;44.50;99018.03;4996398;28;20037;-67
2024/03/29 09:27:26;;;;;;;1.75;0.52;;;;;;;20.68;44.33;99012.38;4996396;28;20038;-67
2024/03/29 09:29:52;;;;;;;0.85;0.60;;;;;;;20.56;44.53;99017.00;4980052;28;20438;-67
2024/03/29 09:32:19;;;;;;;0.32;0.30;;;;;;;20.56;44.74;99030.59;5013782;28;20038;-67
2024/03/29 09:34:45;;;;;;;1.48;0.60;;;;;;;20.56;45.07;99041.47;4979622;28;20042;-66
2024/03/29 09:37:10;;;;;;;2.60;0.60;;;;;;;20.56;44.88;99046.91;4995749;28;20383;-67
2024/03/29 09:39:36;;;;;;;2.13;0.88;;;;;;;20.64;44.83;99046.56;5013682;28;20497;-67
2024/03/29 09:42:02;;;;;;;1.50;0.80;;;;;;;20.73;44.24;99056.84;4996089;28;20076;-67
2024/03/29 09:44:32;;;;;;;2.80;0.43;;;;;;;20.81;44.37;99061.09;4996102;28;20116;-67
2024/03/29 09:47:01;;;;;;;2.58;0.73;;;;;;;20.83;44.50;99059.78;5013684;28;20038;-67
2024/03/29 09:49:27;;;;;;;0.90;0.50;;;;;;;20.83;43.51;99058.97;4996084;28;20038;-67
2024/03/29 09:51:53;;;;;;;1.80;0.32;;;;;;;20.79;44.28;99065.97;5012256;28;20038;-67
2024/03/29 09:54:19;;;;;;;0.50;0.30;;;;;;;20.81;43.98;99069.28;4995796;28;20034;-66
2024/03/29 09:56:44;;;;;;;1.10;0.35;;;;;;;20.81;44.19;99077.44;4998976;28;20045;-67
2024/03/29 09:59:10;;;;;;;1.38;0.60;;;;;;;20.85;44.07;99073.97;4999103;28;20088;-67
2024/03/29 10:01:35;;;;;;;2.65;0.50;;;;;;;20.89;44.05;99079.78;5015572;28;20029;-67
2024/03/29 10:04:02;;;;;;;1.98;0.40;;;;;;;20.88;43.47;99068.06;4999125;28;20037;-67
2024/03/29 10:06:29;;;;;;;0.65;0.28;;;;;;;20.99;44.13;99074.59;4999024;28;20057;-67
2024/03/29 10:08:57;;;;;;;1.35;0.30;;;;;;;21.04;43.58;99061.06;5015540;28;20083;-66
2024/03/29 10:11:24;;;;;;;3.97;0.38;;;;;;;21.32;43.29;99058.44;5015808;28;20505;-66
2024/03/29 10:13:50;;;;;;;0.73;0.28;;;;;;;21.47;43.08;99056.00;4982960;28;20493;-68
2024/03/29 10:16:21;;;;;;;0.30;0.30;;;;;;;21.64;43.56;99050.59;5032737;28;20045;-66
2024/03/29 10:18:47;;;;;;;0.63;0.20;;;;;;;21.90;43.01;99051.91;5015441;28;20091;-68
2024/03/29 10:21:13;;;;;;;1.80;0.30;;;;;;;22.19;42.44;99053.53;4998808;28;20053;-69
2024/03/29 10:23:40;;;;;;;0.80;0.65;;;;;;;22.13;42.38;99059.13;5015163;28;20159;-68
2024/03/29 10:26:05;;;;;;;0.63;0.28;;;;;;;22.14;42.56;99055.34;5015244;28;20041;-68
2024/03/29 10:28:35;;;;;;;0.98;0.35;;;;;;;22.10;42.38;99059.63;4998665;28;20059;-68
2024/03/29 10:31:03;;;;;;;0.15;0.13;;;;;;;22.03;42.88;99057.03;4998991;28;20116;-68
2024/03/29 10:33:32;;;;;;;0.47;0.38;;;;;;;21.97;42.48;99058.06;5032670;28;20041;-66
2024/03/29 10:35:59;;;;;;;0.17;0.17;;;;;;;21.95;43.36;99057.44;4998960;28;20045;-69
2024/03/29 10:38:26;;;;;;;4.03;0.43;;;;;;;21.95;42.78;99068.34;4998480;28;20026;-68
2024/03/29 10:40:52;;;;;;;2.15;0.30;;;;;;;22.04;43.02;99070.44;4982529;28;20057;-68
2024/03/29 10:43:19;;;;;;;5.07;0.40;;;;;;;22.32;41.75;99068.72;5032516;28;20037;-69
2024/03/29 10:45:46;;;;;;;0.30;0.30;;;;;;;22.78;41.92;99067.56;4982473;28;20413;-68
2024/03/29 10:48:15;;;;;;;0.90;0.40;;;;;;;22.80;42.04;99046.28;5002006;28;20504;-68
2024/03/29 10:50:42;;;;;;;0.30;0.28;;;;;;;22.90;41.70;99057.34;4986282;28;20091;-68
2024/03/29 10:53:08;;;;;;;0.65;0.28;;;;;;;23.28;41.12;99061.94;5036397;28;20554;-69
2024/03/29 10:55:34;;;;;;;2.28;0.38;;;;;;;23.47;41.04;99055.94;5018703;28;20416;-69
2024/03/29 10:58:01;;;;;;;1.42;0.45;;;;;;;23.29;41.34;99064.41;5002297;28;20038;-69
2024/03/29 11:00:38;;;;;;;0.50;0.40;;;;;;;23.05;40.71;99060.28;5018743;28;20030;-69
2024/03/29 11:03:17;;;;;;;1.70;0.40;;;;;;;23.03;41.08;99071.44;5002733;28;20049;-69
2024/03/29 11:05:48;;;;;;;0.20;0.20;;;;;;;22.84;41.32;99074.72;5018903;28;20021;-68
2024/03/29 11:08:18;;;;;;;0.40;0.35;;;;;;;22.80;40.88;99073.59;5018478;28;20060;-69
2024/03/29 11:10:47;;;;;;;3.00;0.30;;;;;;;22.75;40.78;99084.44;5002782;28;20389;-69
2024/03/29 11:13:37;;;;;;;3.20;0.28;;;;;;;22.71;41.01;99083.28;5019295;28;20075;-69
2024/03/29 11:16:03;;;;;;;1.45;0.25;;;;;;;22.67;41.13;99065.75;5018421;28;20037;-68
2024/03/29 11:18:29;;;;;;;2.97;0.30;;;;;;;22.58;41.34;99057.94;5002045;28;20060;-68
2024/03/29 11:20:56;;;;;;;0.30;0.25;;;;;;;22.51;41.26;99051.84;4985649;28;20501;-68
2024/03/29 11:23:22;;;;;;;0.15;0.15;;;;;;;22.42;40.40;99060.69;5001894;28;20517;-69
2024/03/29 11:25:55;;;;;;;1.00;0.30;;;;;;;22.38;40.37;99060.38;5001913;28;20112;-68
2024/03/29 11:28:26;;;;;;;0.20;0.10;;;;;;;22.33;40.79;99063.03;5001900;28;20037;-68
2024/03/29 11:30:53;;;;;;;1.30;0.20;;;;;;;22.35;40.88;99084.59;5018199;28;20042;-66
2024/03/29 11:33:37;;;;;;;0.25;0.20;;;;;;;22.27;40.78;99096.75;5001816;28;20056;-67
2024/03/29 11:36:12;;;;;;;3.65;0.63;;;;;;;22.18;40.13;99109.13;5018043;28;20049;-67
2024/03/29 11:38:38;;;;;;;1.05;0.30;;;;;;;22.14;41.02;99118.88;5001760;28;20045;-67